createdAt,value
2023-02-03T00:01:24.412Z,95205.25
2023-02-03T00:04:27.444Z,95216.38
2023-02-03T00:07:30.926Z,95215.59
2023-02-03T00:10:35.083Z,95217.97
2023-02-03T00:13:39.562Z,95219.63
2023-02-03T00:16:42.606Z,95219.53
2023-02-03T00:19:45.607Z,95216.47
2023-02-03T00:22:48.636Z,95220.72
2023-02-03T00:25:51.676Z,95233.13
2023-02-03T00:28:56.262Z,95233.63
2023-02-03T00:32:00.013Z,95228.69
2023-02-03T00:35:03.105Z,95242.69
2023-02-03T00:38:06.108Z,95238.94
2023-02-03T00:41:09.286Z,95248.00
2023-02-03T00:44:13.655Z,95254.59
2023-02-03T00:47:19.226Z,95251.94
2023-02-03T00:50:22.218Z,95255.69
2023-02-03T00:53:27.076Z,95263.88
2023-02-03T00:56:30.051Z,95256.47
2023-02-03T00:59:34.461Z,95257.28
2023-02-03T01:02:37.576Z,95264.47
2023-02-03T01:05:40.617Z,95265.75
2023-02-03T01:08:45.552Z,95267.31
2023-02-03T01:14:52.718Z,95273.22
2023-02-03T01:17:58.109Z,95271.34
2023-02-03T01:21:06.493Z,95271.84
2023-02-03T01:24:10.294Z,95276.38
2023-02-03T01:27:15.594Z,95270.06
2023-02-03T01:30:20.573Z,95259.13
2023-02-03T01:33:23.601Z,95253.13
2023-02-03T01:36:29.256Z,95246.78
2023-02-03T01:39:32.247Z,95270.88
2023-02-03T01:42:35.411Z,95271.16
2023-02-03T01:45:41.412Z,95278.06
2023-02-03T01:48:44.502Z,95285.75
2023-02-03T01:51:48.101Z,95285.75
2023-02-03T01:55:02.083Z,95283.88
2023-02-03T01:58:08.831Z,95278.06
2023-02-03T02:01:13.527Z,95286.03
2023-02-03T02:04:17.463Z,95287.13
2023-02-03T02:07:20.430Z,95287.13
2023-02-03T02:10:23.515Z,95280.72
2023-02-03T02:13:30.065Z,95280.72
2023-02-03T02:16:45.927Z,95285.53
2023-02-03T02:20:23.446Z,95283.97
2023-02-03T02:23:45.937Z,95278.06
2023-02-03T02:27:07.660Z,95281.00
2023-02-03T02:30:31.615Z,95289.28
2023-02-03T02:33:43.734Z,95287.50
2023-02-03T02:37:01.264Z,95296.47
2023-02-03T02:40:12.399Z,95290.66
2023-02-03T02:43:24.498Z,95297.06
2023-02-03T02:46:34.221Z,95286.63
2023-02-03T02:49:46.031Z,95283.97
2023-02-03T02:52:53.478Z,95271.25
2023-02-03T02:55:59.636Z,95279.22
2023-02-03T02:59:07.521Z,95282.38
2023-02-03T03:02:12.133Z,95264.13
2023-02-03T03:05:19.201Z,95300.22
2023-02-03T03:08:29.435Z,95307.41
2023-02-03T03:11:45.963Z,95307.97
2023-02-03T03:14:51.915Z,95314.09
2023-02-03T03:18:00.494Z,95304.91
2023-02-03T03:21:08.106Z,95321.00
2023-02-03T03:24:23.958Z,95319.19
2023-02-03T03:27:33.753Z,95336.66
2023-02-03T03:30:38.615Z,95337.22
2023-02-03T03:33:41.940Z,95344.34
2023-02-03T03:36:52.352Z,95336.16
2023-02-03T03:39:57.701Z,95344.41
2023-02-03T03:43:04.625Z,95336.59
2023-02-03T03:46:13.596Z,95360.38
2023-02-03T03:49:20.139Z,95358.50
2023-02-03T03:52:30.105Z,95352.13
2023-02-03T03:55:36.093Z,95357.72
2023-02-03T03:58:41.326Z,95367.31
2023-02-03T04:01:44.898Z,95364.41
2023-02-03T04:04:49.014Z,95373.16
2023-02-03T04:07:55.556Z,95369.13
2023-02-03T04:10:58.678Z,95377.13
2023-02-03T04:14:03.770Z,95378.19
2023-02-03T04:17:07.141Z,95364.34
2023-02-03T04:20:13.714Z,95393.56
2023-02-03T04:23:18.191Z,95381.59
2023-02-03T04:26:21.165Z,95397.34
2023-02-03T04:29:24.170Z,95392.03
2023-02-03T04:32:27.160Z,95393.72
2023-02-03T04:35:30.170Z,95386.91
2023-02-03T04:38:34.606Z,95392.78
2023-02-03T04:41:37.578Z,95399.72
2023-02-03T04:44:40.523Z,95405.13
2023-02-03T04:47:45.839Z,95410.50
2023-02-03T04:50:56.095Z,95413.59
2023-02-03T04:54:00.426Z,95422.00
2023-02-03T04:57:03.560Z,95422.38
2023-02-03T05:00:07.902Z,95424.59
2023-02-03T05:03:10.900Z,95430.16
2023-02-03T05:06:13.932Z,95428.50
2023-02-03T05:09:18.528Z,95444.03
2023-02-03T05:12:21.534Z,95440.56
2023-02-03T05:15:26.729Z,95449.97
2023-02-03T05:18:31.652Z,95444.47
2023-02-03T05:21:34.629Z,95447.81
2023-02-03T05:24:39.139Z,95454.91
2023-02-03T05:27:43.146Z,95449.50
2023-02-03T05:30:48.380Z,95435.44
2023-02-03T05:33:51.386Z,95443.47
2023-02-03T05:36:54.463Z,95442.31
2023-02-03T05:40:18.842Z,95448.97
2023-02-03T05:43:20.813Z,95455.06
2023-02-03T05:46:23.874Z,95453.63
2023-02-03T05:49:27.491Z,95458.22
2023-02-03T05:52:30.473Z,95451.59
2023-02-03T05:55:35.484Z,95446.94
2023-02-03T05:58:38.506Z,95450.31
2023-02-03T06:01:44.324Z,95453.25
2023-02-03T06:04:49.387Z,95459.66
2023-02-03T06:07:52.964Z,95462.31
2023-02-03T06:11:00.835Z,95468.72
2023-02-03T06:14:04.223Z,95466.34
2023-02-03T06:17:14.348Z,95472.44
2023-02-03T06:20:20.082Z,95471.94
2023-02-03T06:23:23.571Z,95480.22
2023-02-03T06:26:28.014Z,95480.94
2023-02-03T06:29:33.009Z,95479.22
2023-02-03T06:32:36.149Z,95485.53
2023-02-03T06:38:41.817Z,95488.13
2023-02-03T06:41:46.363Z,95486.16
2023-02-03T06:44:49.357Z,95484.78
2023-02-03T06:47:54.762Z,95496.63
2023-02-03T06:50:57.718Z,95497.72
2023-02-03T06:54:00.813Z,95495.63
2023-02-03T06:57:05.274Z,95500.38
2023-02-03T07:00:10.594Z,95496.16
2023-02-03T07:03:14.197Z,95489.53
2023-02-03T07:06:18.933Z,95496.97
2023-02-03T07:09:21.970Z,95494.28
2023-02-03T07:12:35.065Z,95492.91
2023-02-03T07:15:38.268Z,95505.34
2023-02-03T07:18:47.255Z,95476.91
2023-02-03T07:21:51.260Z,95506.25
2023-02-03T07:24:54.223Z,95510.69
2023-02-03T07:27:58.671Z,95509.50
2023-02-03T07:31:02.131Z,95521.38
2023-02-03T07:34:05.198Z,95527.88
2023-02-03T07:37:08.323Z,95525.63
2023-02-03T07:40:19.829Z,95527.88
2023-02-03T07:43:26.387Z,95536.97
2023-02-03T07:46:31.714Z,95532.13
2023-02-03T07:49:34.778Z,95520.72
2023-02-03T07:52:38.015Z,95534.19
2023-02-03T07:55:41.438Z,95536.28
2023-02-03T07:58:48.406Z,95521.84
2023-02-03T08:01:51.436Z,95524.22
2023-02-03T08:04:57.094Z,95516.13
2023-02-03T08:08:00.153Z,95519.03
2023-02-03T08:11:03.434Z,95518.13
2023-02-03T08:14:08.081Z,95540.75
2023-02-03T08:17:12.469Z,95527.72
2023-02-03T08:20:16.574Z,95530.88
2023-02-03T08:23:19.651Z,95537.19
2023-02-03T08:26:22.658Z,95527.00
2023-02-03T08:29:28.880Z,95540.16
2023-02-03T08:32:31.937Z,95545.19
2023-02-03T08:35:36.456Z,95540.94
2023-02-03T08:38:39.855Z,95542.53
2023-02-03T08:41:44.727Z,95552.22
2023-02-03T08:44:49.402Z,95550.03
2023-02-03T08:47:52.678Z,95546.09
2023-02-03T08:50:58.488Z,95556.56
2023-02-03T08:54:01.614Z,95567.53
2023-02-03T08:57:04.882Z,95565.34
2023-02-03T09:00:11.119Z,95573.13
2023-02-03T09:03:14.184Z,95562.25
2023-02-03T09:06:17.697Z,95560.78
2023-02-03T09:09:22.767Z,95561.75
2023-02-03T09:12:25.740Z,95573.88
2023-02-03T09:15:30.149Z,95565.69
2023-02-03T09:18:33.282Z,95567.56
2023-02-03T09:21:44.905Z,95544.03
2023-02-03T09:24:53.135Z,95552.34
2023-02-03T09:27:56.199Z,95546.22
2023-02-03T09:31:02.611Z,95542.25
2023-02-03T09:34:05.880Z,95549.41
2023-02-03T09:37:11.331Z,95531.41
2023-02-03T09:40:21.871Z,95550.47
2023-02-03T09:43:38.434Z,95550.47
2023-02-03T09:46:45.380Z,95550.19
2023-02-03T09:49:53.989Z,95542.38
2023-02-03T09:52:59.175Z,95541.31
2023-02-03T09:56:02.540Z,95557.00
2023-02-03T09:59:05.647Z,95554.53
2023-02-03T10:02:26.491Z,95561.44
2023-02-03T10:05:53.617Z,95543.28
2023-02-03T10:09:35.459Z,95548.34
2023-02-03T10:12:54.821Z,95536.88
2023-02-03T10:16:12.785Z,95542.22
2023-02-03T10:19:21.462Z,95537.88
2023-02-03T10:22:37.513Z,95550.63
2023-02-03T10:25:44.565Z,95548.25
2023-02-03T10:28:54.483Z,95551.81
2023-02-03T10:31:58.963Z,95540.03
2023-02-03T10:35:03.467Z,95540.31
2023-02-03T10:38:16.528Z,95542.84
2023-02-03T10:41:23.679Z,95542.16
2023-02-03T10:44:37.148Z,95539.06
2023-02-03T10:47:45.513Z,95546.03
2023-02-03T10:50:54.533Z,95540.78
2023-02-03T10:54:00.157Z,95545.41
2023-02-03T10:57:06.028Z,95545.47
2023-02-03T11:00:23.769Z,95545.75
2023-02-03T11:03:31.786Z,95537.78
2023-02-03T11:06:36.763Z,95543.88
2023-02-03T11:09:41.425Z,95554.03
2023-02-03T11:12:45.662Z,95546.94
2023-02-03T11:15:58.236Z,95543.09
2023-02-03T11:19:03.584Z,95536.19
2023-02-03T11:22:08.208Z,95537.28
2023-02-03T11:25:20.144Z,95532.44
2023-02-03T11:28:30.464Z,95519.63
2023-02-03T11:31:36.452Z,95527.63
2023-02-03T11:34:43.033Z,95507.88
2023-02-03T11:37:48.494Z,95505.22
2023-02-03T11:41:01.238Z,95499.34
2023-02-03T11:44:12.561Z,95496.38
2023-02-03T11:47:19.665Z,95489.19
2023-02-03T11:50:30.077Z,95480.41
2023-02-03T11:53:57.384Z,95482.78
2023-02-03T11:57:19.006Z,95480.47
2023-02-03T12:00:31.265Z,95476.66
2023-02-03T12:03:59.906Z,95487.50
2023-02-03T12:07:18.745Z,95492.25
2023-02-03T12:10:43.303Z,95477.63
2023-02-03T12:14:08.832Z,95504.47
2023-02-03T12:17:48.346Z,95488.50
2023-02-03T12:21:13.310Z,95493.44
2023-02-03T12:24:28.759Z,95448.16
2023-02-03T12:27:50.792Z,95478.19
2023-02-03T12:31:00.522Z,95488.34
2023-02-03T12:34:18.121Z,95478.78
2023-02-03T12:37:26.732Z,95482.53
2023-02-03T12:40:37.864Z,95459.34
2023-02-03T12:43:49.386Z,95452.22
2023-02-03T12:47:01.361Z,95455.69
2023-02-03T12:50:13.492Z,95449.16
2023-02-03T12:53:20.681Z,95439.97
2023-02-03T12:56:30.742Z,95442.72
2023-02-03T12:59:39.382Z,95449.34
2023-02-03T13:02:54.376Z,95447.75
2023-02-03T13:06:09.483Z,95452.00
2023-02-03T13:09:25.199Z,95441.94
2023-02-03T13:12:31.958Z,95440.38
2023-02-03T13:15:41.860Z,95453.88
2023-02-03T13:18:51.475Z,95438.19
2023-02-03T13:21:54.627Z,95442.16
2023-02-03T13:25:08.648Z,95440.88
2023-02-03T13:28:22.084Z,95438.50
2023-02-03T13:31:39.747Z,95437.41
2023-02-03T13:35:05.716Z,95433.56
2023-02-03T13:38:26.963Z,95435.84
2023-02-03T13:41:38.926Z,95427.72
2023-02-03T13:44:48.154Z,95442.25
2023-02-03T13:47:56.153Z,95437.50
2023-02-03T13:51:08.377Z,95433.75
2023-02-03T13:54:18.207Z,95430.41
2023-02-03T13:57:24.045Z,95438.88
2023-02-03T14:01:04.231Z,95436.22
2023-02-03T14:04:14.344Z,95440.50
2023-02-03T14:07:32.151Z,95444.25
2023-02-03T14:10:36.900Z,95453.56
2023-02-03T14:13:40.048Z,95457.28
2023-02-03T14:16:44.077Z,95455.69
2023-02-03T14:19:57.363Z,95443.97
2023-02-03T14:23:08.428Z,95460.03
2023-02-03T14:26:20.753Z,95454.91
2023-02-03T14:29:29.621Z,95454.41
2023-02-03T14:32:50.687Z,95452.84
2023-02-03T14:35:55.345Z,95445.13
2023-02-03T14:39:01.516Z,95458.16
2023-02-03T14:42:14.436Z,95445.13
2023-02-03T14:46:01.919Z,95453.41
2023-02-03T14:49:28.237Z,95456.88
2023-02-03T14:53:03.195Z,95443.84
2023-02-03T14:56:20.690Z,95456.06
2023-02-03T14:59:29.791Z,95445.22
2023-02-03T15:02:34.698Z,95447.88
2023-02-03T15:05:41.343Z,95434.09
2023-02-03T15:08:47.380Z,95423.94
2023-02-03T15:11:50.438Z,95417.63
2023-02-03T15:14:53.933Z,95405.38
2023-02-03T15:17:59.657Z,95395.81
2023-02-03T15:21:05.461Z,95389.41
2023-02-03T15:24:15.641Z,95385.16
2023-02-03T15:27:23.633Z,95382.22
2023-02-03T15:30:29.891Z,95383.81
2023-02-03T15:33:35.179Z,95378.75
2023-02-03T15:36:47.443Z,95372.94
2023-02-03T15:40:00.754Z,95384.66
2023-02-03T15:43:15.584Z,95375.59
2023-02-03T15:46:24.337Z,95371.06
2023-02-03T15:49:31.263Z,95367.13
2023-02-03T15:52:41.357Z,95365.53
2023-02-03T15:55:48.202Z,95366.31
2023-02-03T15:58:51.721Z,95368.69
2023-02-03T16:01:55.467Z,95369.50
2023-02-03T16:04:58.922Z,95371.16
2023-02-03T16:08:31.668Z,95368.19
2023-02-03T16:11:37.983Z,95358.63
2023-02-03T16:14:43.292Z,95352.44
2023-02-03T16:17:48.620Z,95362.88
2023-02-03T16:20:52.951Z,95348.00
2023-02-03T16:23:57.788Z,95352.22
2023-02-03T16:27:36.847Z,95349.56
2023-02-03T16:31:10.794Z,95331.03
2023-02-03T16:34:33.438Z,95328.59
2023-02-03T16:38:02.885Z,95323.84
2023-02-03T16:41:34.896Z,95308.44
2023-02-03T16:44:55.315Z,95307.72
2023-02-03T16:48:17.410Z,95295.69
2023-02-03T16:51:21.402Z,95288.78
2023-02-03T16:54:24.666Z,95280.81
2023-02-03T16:57:28.822Z,95275.56
2023-02-03T17:00:31.899Z,95271.63
2023-02-03T17:03:37.868Z,95265.00
2023-02-03T17:06:41.949Z,95267.97
2023-02-03T17:09:45.175Z,95267.25
2023-02-03T17:12:49.393Z,95263.00
2023-02-03T17:15:53.812Z,95215.38
2023-02-03T17:18:58.224Z,95250.19
2023-02-03T17:22:03.648Z,95273.06
2023-02-03T17:25:07.816Z,95263.13
2023-02-03T17:28:12.311Z,95267.88
2023-02-03T17:31:17.450Z,95263.34
2023-02-03T17:34:22.436Z,95233.38
2023-02-03T17:37:25.487Z,95245.41
2023-02-03T17:53:55.723Z,95209.44
2023-02-03T17:57:00.652Z,95218.69
2023-02-03T18:00:04.370Z,95196.13
2023-02-03T18:03:07.391Z,95198.00
2023-02-03T18:06:12.551Z,95187.44
2023-02-03T18:09:17.797Z,95193.25
2023-02-03T18:12:25.186Z,95186.06
2023-02-03T18:15:28.404Z,95180.03
2023-02-03T18:18:31.864Z,95163.19
2023-02-03T18:21:39.725Z,95178.94
2023-02-03T18:24:47.075Z,95179.22
2023-02-03T18:27:51.657Z,95177.34
2023-02-03T18:31:00.155Z,95165.94
2023-02-03T18:34:04.623Z,95168.03
2023-02-03T18:37:09.774Z,95172.81
2023-02-03T18:40:13.031Z,95177.34
2023-02-03T18:43:22.149Z,95178.94
2023-02-03T18:46:27.165Z,95171.56
2023-02-03T18:49:31.331Z,95167.97
2023-02-03T18:52:37.783Z,95178.03
2023-02-03T18:55:54.598Z,95172.16
2023-02-03T18:58:57.604Z,95183.78
2023-02-03T19:02:01.366Z,95184.84
2023-02-03T19:05:05.528Z,95184.59
2023-02-03T19:08:10.128Z,95170.16
2023-02-03T19:11:14.430Z,95164.84
2023-02-03T19:14:17.584Z,95155.91
2023-02-03T19:17:22.994Z,95152.50
2023-02-03T19:20:26.075Z,95130.94
2023-02-03T19:23:30.548Z,95119.84
2023-02-03T19:26:33.632Z,95112.72
2023-02-03T19:29:38.698Z,95111.28
2023-02-03T19:32:43.462Z,95105.06
2023-02-03T19:35:50.204Z,95096.50
2023-02-03T19:38:54.738Z,95088.13
2023-02-03T19:41:57.777Z,95086.84
2023-02-03T19:45:00.754Z,95091.88
2023-02-03T19:48:03.900Z,95087.34
2023-02-03T19:51:09.415Z,95071.94
2023-02-03T19:54:15.066Z,95078.56
2023-02-03T19:57:18.069Z,95080.50
2023-02-03T20:00:22.035Z,95080.50
2023-02-03T20:03:29.101Z,95076.28
2023-02-03T20:06:32.641Z,95085.34
2023-02-03T20:09:37.038Z,95078.44
2023-02-03T20:12:40.016Z,95080.63
2023-02-03T20:15:47.197Z,95079.34
2023-02-03T20:18:50.487Z,95074.13
2023-02-03T20:21:53.444Z,95069.56
2023-02-03T20:24:58.712Z,95064.06
2023-02-03T20:28:02.672Z,95063.88
2023-02-03T20:31:08.725Z,95062.31
2023-02-03T20:34:11.878Z,95061.53
2023-02-03T20:37:14.849Z,95057.88
2023-02-03T20:40:22.471Z,95050.75
2023-02-03T20:43:27.723Z,95043.38
2023-02-03T20:46:30.796Z,95038.66
2023-02-03T20:49:33.929Z,95042.59
2023-02-03T20:52:37.006Z,95044.94
2023-02-03T20:55:44.160Z,95037.75
2023-02-03T20:58:47.197Z,95031.03
2023-02-03T21:01:50.766Z,95020.31
2023-02-03T21:04:58.829Z,95023.19
2023-02-03T21:08:01.888Z,95016.88
2023-02-03T21:11:11.762Z,95018.16
2023-02-03T21:14:22.643Z,95019.44
2023-02-03T21:17:27.524Z,95012.06
2023-02-03T21:20:34.813Z,94998.47
2023-02-03T21:23:48.554Z,95010.47
2023-02-03T21:26:53.242Z,95000.63
2023-02-03T21:29:57.605Z,94997.47
2023-02-03T21:33:01.620Z,94988.69
2023-02-03T21:36:04.878Z,94989.00
2023-02-03T21:39:25.092Z,94998.03
2023-02-03T21:42:46.002Z,94987.63
2023-02-03T21:45:50.395Z,94998.34
2023-02-03T21:48:54.586Z,94996.47
2023-02-03T21:51:57.648Z,94996.47
2023-02-03T21:55:00.695Z,94986.91
2023-02-03T21:58:19.831Z,94979.13
2023-02-03T22:01:24.310Z,94984.47
2023-02-03T22:04:31.301Z,94983.69
2023-02-03T22:07:34.410Z,94981.50
2023-02-03T22:10:37.357Z,94976.97
2023-02-03T22:13:41.785Z,94975.88
2023-02-03T22:16:45.106Z,94972.94
2023-02-03T22:19:48.176Z,94976.97
2023-02-03T22:22:51.186Z,94977.47
2023-02-03T22:25:55.979Z,94978.84
2023-02-03T22:29:00.352Z,94968.19
2023-02-03T22:32:05.537Z,94970.84
2023-02-03T22:35:09.294Z,94965.53
2023-02-03T22:38:12.380Z,94952.13
2023-02-03T22:41:15.351Z,94955.41
2023-02-03T22:44:21.087Z,94956.47
2023-02-03T22:47:24.431Z,94955.09
2023-02-03T22:50:35.570Z,94943.94
2023-02-03T22:53:39.934Z,94943.94
2023-02-03T22:56:42.952Z,94938.63
2023-02-03T22:59:49.661Z,94932.03
2023-02-03T23:02:52.846Z,94930.56
2023-02-03T23:05:56.577Z,94929.28
2023-02-03T23:09:02.217Z,94921.31
2023-02-03T23:12:06.059Z,94913.03
2023-02-03T23:15:11.672Z,94913.50
2023-02-03T23:18:14.709Z,94905.81
2023-02-03T23:21:17.731Z,94898.94
2023-02-03T23:24:20.811Z,94896.28
2023-02-03T23:27:23.846Z,94886.41
2023-02-03T23:30:30.376Z,94884.84
2023-02-03T23:33:33.722Z,94867.00
2023-02-03T23:36:35.714Z,94863.25
2023-02-03T23:39:41.051Z,94856.16
2023-02-03T23:42:46.117Z,94822.78
2023-02-03T23:45:52.778Z,94834.47
2023-02-03T23:48:55.760Z,94828.34
2023-02-03T23:51:58.795Z,94824.59
2023-02-03T23:55:01.895Z,94824.13
2023-02-03T23:58:06.076Z,94829.31
